createdAt,value
2022-09-15T00:02:33.458Z,4.60
2022-09-15T00:06:18.870Z,1.97
2022-09-15T00:10:01.631Z,4.30
2022-09-15T00:13:45.156Z,4.83
2022-09-15T00:17:28.047Z,3.60
2022-09-15T00:21:14.886Z,3.67
2022-09-15T00:25:00.452Z,4.60
2022-09-15T00:28:43.662Z,2.43
2022-09-15T00:32:26.511Z,3.43
2022-09-15T00:36:11.674Z,2.53
2022-09-15T00:39:55.718Z,3.37
2022-09-15T00:43:48.357Z,1.77
2022-09-15T00:47:33.784Z,4.23
2022-09-15T00:51:19.720Z,4.90
2022-09-15T00:55:06.962Z,1.57
2022-09-15T00:58:53.008Z,4.23
2022-09-15T01:02:37.329Z,2.40
2022-09-15T01:06:23.748Z,4.47
2022-09-15T01:10:11.685Z,4.00
2022-09-15T01:13:54.330Z,4.53
2022-09-15T01:17:44.202Z,2.43
2022-09-15T01:21:36.622Z,4.73
2022-09-15T01:25:35.221Z,3.20
2022-09-15T01:30:01.262Z,4.90
2022-09-15T01:33:48.561Z,1.70
2022-09-15T01:37:34.766Z,1.83
2022-09-15T01:41:19.203Z,2.00
2022-09-15T01:45:08.245Z,3.40
2022-09-15T01:48:53.781Z,3.27
2022-09-15T01:52:36.840Z,5.93
2022-09-15T01:56:19.630Z,1.80
2022-09-15T02:00:05.016Z,4.73
2022-09-15T02:03:55.556Z,3.23
2022-09-15T02:07:45.430Z,2.43
2022-09-15T02:11:29.026Z,3.10
2022-09-15T02:15:15.062Z,2.37
2022-09-15T02:19:10.177Z,3.80
2022-09-15T02:22:55.655Z,3.20
2022-09-15T02:26:39.830Z,1.77
2022-09-15T02:30:24.166Z,6.43
2022-09-15T02:34:12.059Z,3.20
2022-09-15T02:37:59.800Z,3.67
2022-09-15T02:41:42.674Z,3.00
2022-09-15T02:45:27.006Z,4.67
2022-09-15T02:49:09.786Z,2.10
2022-09-15T02:52:57.495Z,1.63
2022-09-15T02:56:41.068Z,2.80
2022-09-15T03:00:26.329Z,3.37
2022-09-15T03:04:09.286Z,4.03
2022-09-15T03:07:52.654Z,2.07
2022-09-15T03:11:36.249Z,3.23
2022-09-15T03:15:21.248Z,5.93
2022-09-15T03:19:06.284Z,3.77
2022-09-15T03:22:49.557Z,3.80
2022-09-15T03:26:32.281Z,4.13
2022-09-15T03:30:15.239Z,3.80
2022-09-15T03:33:58.211Z,2.23
2022-09-15T03:37:42.270Z,3.27
2022-09-15T03:41:25.499Z,4.30
2022-09-15T03:45:08.987Z,4.37
2022-09-15T03:48:51.645Z,3.00
2022-09-15T03:52:34.374Z,2.63
2022-09-15T03:56:24.052Z,3.17
2022-09-15T04:00:08.260Z,3.10
2022-09-15T04:03:51.665Z,1.80
2022-09-15T04:07:34.417Z,3.43
2022-09-15T04:11:19.019Z,5.83
2022-09-15T04:15:03.968Z,2.00
2022-09-15T04:18:46.891Z,1.70
2022-09-15T04:22:32.049Z,2.80
2022-09-15T04:26:20.065Z,1.47
2022-09-15T04:30:08.673Z,3.47
2022-09-15T04:33:53.513Z,3.13
2022-09-15T04:37:39.307Z,2.17
2022-09-15T04:41:22.460Z,1.30
2022-09-15T04:45:08.241Z,3.10
2022-09-15T04:48:51.860Z,4.23
2022-09-15T04:52:34.578Z,2.53
2022-09-15T04:56:19.861Z,2.57
2022-09-15T05:00:04.728Z,2.17
2022-09-15T05:03:49.109Z,1.97
2022-09-15T05:07:31.945Z,3.30
2022-09-15T05:11:14.752Z,2.13
2022-09-15T05:14:57.691Z,1.13
2022-09-15T05:18:41.318Z,1.23
2022-09-15T05:22:25.392Z,3.10
2022-09-15T05:26:10.138Z,1.00
2022-09-15T05:30:04.442Z,2.07
2022-09-15T05:33:56.102Z,1.40
2022-09-15T05:37:40.199Z,1.43
2022-09-15T05:41:23.224Z,1.47
2022-09-15T05:45:06.662Z,1.43
2022-09-15T05:48:49.685Z,1.40
2022-09-15T05:52:32.454Z,3.10
2022-09-15T05:56:17.937Z,2.93
2022-09-15T06:00:00.625Z,1.40
2022-09-15T06:03:44.457Z,1.60
2022-09-15T06:07:27.137Z,3.77
2022-09-15T06:11:15.109Z,3.77
2022-09-15T06:14:59.791Z,2.67
2022-09-15T06:18:42.983Z,1.47
2022-09-15T06:22:25.726Z,1.97
2022-09-15T06:26:10.633Z,2.43
2022-09-15T06:29:53.526Z,3.00
2022-09-15T06:33:37.617Z,1.17
2022-09-15T06:37:20.298Z,1.37
2022-09-15T06:41:03.173Z,6.03
2022-09-15T06:44:45.937Z,1.70
2022-09-15T06:48:28.636Z,1.30
2022-09-15T06:52:12.777Z,2.57
2022-09-15T06:55:55.402Z,0.97
2022-09-15T06:59:38.135Z,1.27
2022-09-15T07:03:21.077Z,1.80
2022-09-15T07:07:03.861Z,1.87
2022-09-15T07:10:48.389Z,3.63
2022-09-15T07:14:31.383Z,2.10
2022-09-15T07:18:14.285Z,1.27
2022-09-15T07:21:57.014Z,2.47
2022-09-15T07:25:44.111Z,2.17
2022-09-15T07:29:28.310Z,1.30
2022-09-15T07:33:13.108Z,1.63
2022-09-15T07:36:55.755Z,2.33
2022-09-15T07:40:39.120Z,4.07
2022-09-15T07:44:21.850Z,1.53
2022-09-15T07:48:06.405Z,2.40
2022-09-15T07:51:49.111Z,2.17
2022-09-15T07:55:32.845Z,2.93
2022-09-15T07:59:15.605Z,2.87
2022-09-15T08:02:58.309Z,4.43
2022-09-15T08:06:42.336Z,2.87
2022-09-15T08:10:25.856Z,1.10
2022-09-15T08:14:08.539Z,2.13
2022-09-15T08:17:51.232Z,1.63
2022-09-15T08:21:33.940Z,1.00
2022-09-15T08:25:18.094Z,1.10
2022-09-15T08:29:00.797Z,4.33
2022-09-15T08:32:43.473Z,5.00
2022-09-15T08:36:27.904Z,1.30
2022-09-15T08:40:19.046Z,2.03
2022-09-15T08:44:05.670Z,2.63
2022-09-15T08:47:49.203Z,4.97
2022-09-15T08:51:36.149Z,2.87
2022-09-15T08:55:30.157Z,2.10
2022-09-15T08:59:15.152Z,2.67
2022-09-15T09:03:07.737Z,2.57
2022-09-15T09:06:58.253Z,4.50
2022-09-15T09:10:47.187Z,3.83
2022-09-15T09:14:37.536Z,1.00
2022-09-15T09:18:31.811Z,1.50
2022-09-15T09:22:17.151Z,2.60
2022-09-15T09:26:05.481Z,2.33
2022-09-15T09:29:52.973Z,1.70
2022-09-15T09:33:46.652Z,3.50
2022-09-15T09:37:34.151Z,1.65
2022-09-15T09:41:19.440Z,1.37
2022-09-15T09:45:02.083Z,2.23
2022-09-15T09:48:47.708Z,3.17
2022-09-15T09:52:35.057Z,1.73
2022-09-15T09:56:24.251Z,1.03
2022-09-15T10:00:13.690Z,4.00
2022-09-15T10:04:14.026Z,1.53
2022-09-15T10:08:03.356Z,2.07
2022-09-15T10:11:49.051Z,1.83
2022-09-15T10:15:34.067Z,2.50
2022-09-15T10:19:16.779Z,1.38
2022-09-15T10:23:08.714Z,2.25
2022-09-15T10:26:52.732Z,1.20
2022-09-15T10:30:35.969Z,8.65
2022-09-15T10:34:30.417Z,2.22
2022-09-15T10:38:15.919Z,2.00
2022-09-15T10:42:08.057Z,1.92
2022-09-15T10:45:56.697Z,4.53
2022-09-15T10:49:49.661Z,1.63
2022-09-15T10:54:08.159Z,2.72
2022-09-15T10:58:06.663Z,2.92
2022-09-15T11:02:02.570Z,1.73
2022-09-15T11:06:00.334Z,3.17
2022-09-15T11:09:45.312Z,0.80
2022-09-15T11:13:37.572Z,1.65
2022-09-15T11:17:28.453Z,1.77
2022-09-15T11:21:21.465Z,1.70
2022-09-15T11:25:12.633Z,3.72
2022-09-15T11:28:59.674Z,2.25
2022-09-15T11:32:45.596Z,1.73
2022-09-15T11:36:31.560Z,1.88
2022-09-15T11:40:17.401Z,1.90
2022-09-15T11:44:07.114Z,2.33
2022-09-15T11:47:52.810Z,2.55
2022-09-15T11:51:43.974Z,1.30
2022-09-15T11:55:32.433Z,2.00
2022-09-15T11:59:22.347Z,3.03
2022-09-15T12:03:13.456Z,4.40
2022-09-15T12:07:01.449Z,2.80
2022-09-15T12:10:47.641Z,1.45
2022-09-15T12:14:33.893Z,1.67
2022-09-15T12:18:37.719Z,2.50
2022-09-15T12:22:24.794Z,2.65
2022-09-15T12:26:17.479Z,3.13
2022-09-15T12:30:01.855Z,9.73
2022-09-15T12:33:45.778Z,1.47
2022-09-15T12:37:36.304Z,2.15
2022-09-15T12:41:20.213Z,0.98
2022-09-15T12:45:06.765Z,2.57
2022-09-15T12:48:49.841Z,1.77
2022-09-15T12:52:32.909Z,2.50
2022-09-15T12:56:24.364Z,3.53
2022-09-15T13:01:00.696Z,2.90
2022-09-15T13:04:53.775Z,1.75
2022-09-15T13:08:47.877Z,1.40
2022-09-15T13:12:33.141Z,2.50
2022-09-15T13:16:20.428Z,0.85
2022-09-15T13:20:09.605Z,0.95
2022-09-15T13:23:53.871Z,1.02
2022-09-15T13:27:38.620Z,0.90
2022-09-15T13:31:32.917Z,2.42
2022-09-15T13:35:38.761Z,1.35
2022-09-15T13:39:33.158Z,1.02
2022-09-15T13:43:46.870Z,2.85
2022-09-15T13:47:38.051Z,2.05
2022-09-15T13:51:28.159Z,2.33
2022-09-15T13:55:19.590Z,1.58
2022-09-15T13:59:09.603Z,2.10
2022-09-15T14:02:59.311Z,1.75
2022-09-15T14:06:44.006Z,1.75
2022-09-15T14:10:29.595Z,1.20
2022-09-15T14:14:33.179Z,2.07
2022-09-15T14:18:21.040Z,2.20
2022-09-15T14:22:22.113Z,2.78
2022-09-15T14:26:05.092Z,1.43
2022-09-15T14:29:50.261Z,1.40
2022-09-15T14:33:38.092Z,1.40
2022-09-15T14:37:23.903Z,1.50
2022-09-15T14:41:07.406Z,2.67
2022-09-15T14:48:54.517Z,6.33
2022-09-15T14:52:39.745Z,3.93
2022-09-15T14:56:24.999Z,2.43
2022-09-15T15:00:10.180Z,4.20
2022-09-15T15:03:57.644Z,2.37
2022-09-15T15:07:40.617Z,1.60
2022-09-15T15:11:23.832Z,2.63
2022-09-15T15:15:07.530Z,1.87
2022-09-15T15:18:51.425Z,4.23
2022-09-15T15:22:36.055Z,2.70
2022-09-15T15:26:26.755Z,2.90
2022-09-15T15:30:31.378Z,2.03
2022-09-15T15:34:24.836Z,3.77
2022-09-15T15:38:15.561Z,3.10
2022-09-15T15:42:01.706Z,3.13
2022-09-15T15:45:49.966Z,2.13
2022-09-15T15:49:33.206Z,5.17
2022-09-15T15:53:17.268Z,3.77
2022-09-15T15:57:05.846Z,6.10
2022-09-15T16:00:50.979Z,3.67
2022-09-15T16:04:33.706Z,1.93
2022-09-15T16:08:23.887Z,1.70
2022-09-15T16:12:07.041Z,4.00
2022-09-15T16:15:50.217Z,3.37
2022-09-15T16:19:32.907Z,5.03
2022-09-15T16:23:19.097Z,4.80
2022-09-15T16:27:04.424Z,4.67
2022-09-15T16:30:47.445Z,5.23
2022-09-15T16:34:30.099Z,2.90
2022-09-15T16:38:12.842Z,3.67
2022-09-15T16:41:56.891Z,4.43
2022-09-15T16:45:41.008Z,2.17
2022-09-15T16:49:23.991Z,3.70
2022-09-15T16:53:06.771Z,5.63
2022-09-15T16:56:49.442Z,6.70
2022-09-15T17:00:35.487Z,4.20
2022-09-15T17:04:19.096Z,5.33
2022-09-15T17:08:01.926Z,4.50
2022-09-15T17:11:44.761Z,5.70
2022-09-15T17:15:29.166Z,5.80
2022-09-15T17:19:13.229Z,5.50
2022-09-15T17:22:57.262Z,5.87
2022-09-15T17:26:39.905Z,7.40
2022-09-15T17:30:24.205Z,7.37
2022-09-15T17:34:07.592Z,6.83
2022-09-15T17:37:52.232Z,4.67
2022-09-15T17:41:35.915Z,5.07
2022-09-15T17:45:21.685Z,6.43
2022-09-15T17:49:04.444Z,6.93
2022-09-15T17:52:47.640Z,8.30
2022-09-15T17:56:31.772Z,6.20
2022-09-15T18:00:15.749Z,5.60
2022-09-15T18:03:58.437Z,5.60
2022-09-15T18:07:41.776Z,7.47
2022-09-15T18:11:24.718Z,6.57
2022-09-15T18:15:13.939Z,5.37
2022-09-15T18:18:56.618Z,5.50
2022-09-15T18:22:39.414Z,5.43
2022-09-15T18:26:26.366Z,6.03
2022-09-15T18:30:12.392Z,5.07
2022-09-15T18:33:55.090Z,5.77
2022-09-15T18:37:38.068Z,7.57
2022-09-15T18:41:20.782Z,5.30
2022-09-15T18:45:03.526Z,4.97
2022-09-15T18:48:48.017Z,5.87
2022-09-15T18:52:30.699Z,5.83
2022-09-15T18:56:14.176Z,6.13
2022-09-15T18:59:56.850Z,5.43
2022-09-15T19:03:44.067Z,5.40
2022-09-15T19:07:28.670Z,6.83
2022-09-15T19:11:11.383Z,5.20
2022-09-15T19:14:54.580Z,4.93
2022-09-15T19:18:37.974Z,8.93
2022-09-15T19:22:20.661Z,5.90
2022-09-15T19:26:05.364Z,7.50
2022-09-15T19:29:48.291Z,5.20
2022-09-15T19:33:31.067Z,5.53
2022-09-15T19:37:18.690Z,4.13
2022-09-15T19:41:08.428Z,6.40
2022-09-15T19:44:51.099Z,4.50
2022-09-15T19:48:38.521Z,6.27
2022-09-15T19:52:23.533Z,7.23
2022-09-15T19:56:08.251Z,7.60
2022-09-15T19:59:51.365Z,6.23
2022-09-15T20:03:34.178Z,7.47
2022-09-15T20:07:16.923Z,6.20
2022-09-15T20:10:59.711Z,5.23
2022-09-15T20:14:43.833Z,5.47
2022-09-15T20:18:27.330Z,6.93
2022-09-15T20:22:09.985Z,4.60
2022-09-15T20:25:57.041Z,6.00
2022-09-15T20:29:40.220Z,6.73
2022-09-15T20:33:26.309Z,8.57
2022-09-15T20:37:09.059Z,6.60
2022-09-15T20:40:55.600Z,5.07
2022-09-15T20:44:38.287Z,5.23
2022-09-15T20:48:20.966Z,5.30
2022-09-15T20:52:05.122Z,5.77
2022-09-15T20:55:51.049Z,5.97
2022-09-15T20:59:33.669Z,7.17
2022-09-15T21:03:16.908Z,4.80
2022-09-15T21:06:59.902Z,6.40
2022-09-15T21:10:46.876Z,6.50
2022-09-15T21:14:29.696Z,5.27
2022-09-15T21:18:15.343Z,5.27
2022-09-15T21:21:58.515Z,8.27
2022-09-15T21:25:41.164Z,7.40
2022-09-15T21:29:25.305Z,7.23
2022-09-15T21:33:08.262Z,5.67
2022-09-15T21:36:51.697Z,8.67
2022-09-15T21:40:34.997Z,7.07
2022-09-15T21:44:17.667Z,8.57
2022-09-15T21:48:01.722Z,7.53
2022-09-15T21:51:44.401Z,5.63
2022-09-15T21:55:27.084Z,6.00
2022-09-15T21:59:11.585Z,7.27
2022-09-15T22:02:54.297Z,5.37
2022-09-15T22:06:40.526Z,7.20
2022-09-15T22:10:23.581Z,9.03
2022-09-15T22:14:08.269Z,6.07
2022-09-15T22:17:51.300Z,5.57
2022-09-15T22:21:36.950Z,7.77
2022-09-15T22:25:22.024Z,4.83
2022-09-15T22:29:05.565Z,10.73
2022-09-15T22:32:48.304Z,7.83
2022-09-15T22:36:31.657Z,5.70
2022-09-15T22:40:14.405Z,4.97
2022-09-15T22:43:58.468Z,8.50
2022-09-15T22:47:41.134Z,5.80
2022-09-15T22:51:23.884Z,6.27
2022-09-15T22:55:07.436Z,6.17
2022-09-15T22:58:50.787Z,5.17
2022-09-15T23:02:35.426Z,6.93
2022-09-15T23:06:18.116Z,5.07
2022-09-15T23:10:00.798Z,6.33
2022-09-15T23:13:43.583Z,8.43
2022-09-15T23:17:27.391Z,5.80
2022-09-15T23:21:12.701Z,8.27
2022-09-15T23:24:55.500Z,6.87
2022-09-15T23:28:39.551Z,8.43
2022-09-15T23:32:22.249Z,7.23
2022-09-15T23:36:07.997Z,6.10
2022-09-15T23:39:52.288Z,6.63
2022-09-15T23:43:35.363Z,7.30
2022-09-15T23:47:18.056Z,7.63
2022-09-15T23:51:00.900Z,5.63
2022-09-15T23:54:43.853Z,6.03
2022-09-15T23:58:27.937Z,7.87
